AIRPORT ID: 84D

DATE: 2024-04-25 ZULU TIME: 5.55 LOCAL TIME: 23.55


METAR K84D 250555Z AUTO 35014G19KT 09/01 A2981

ALTIMETER: A2981 Q1009

DENSITY ALT: 2500 Ft

WIND DIRECT: 360

WIND SPEED: 14 Gust

WIND CONDITIONS:

VISIBILTY: Not Available

TEMPERATURE: 49 F 9 C

DEW POINT: 34 F 1 C

HUMID: 56%

LCL: 1,000-3,000 feet

RADIO CHECK: 0

ADVISARIES: 0

GREETINGS: 0

CONVERSATIONS: 0